createdAt,value
2022-09-30T00:00:00.126Z,15.40
2022-09-30T00:10:00.191Z,15.30
2022-09-30T00:20:00.162Z,15.00
2022-09-30T00:30:00.142Z,15.20
2022-09-30T00:40:00.187Z,16.00
2022-09-30T00:50:00.125Z,16.40
2022-09-30T01:00:00.192Z,20.60
2022-09-30T01:10:00.136Z,17.00
2022-09-30T01:20:00.165Z,17.50
2022-09-30T01:30:00.139Z,13.60
2022-09-30T01:40:00.172Z,16.90
2022-09-30T01:50:00.164Z,18.70
2022-09-30T02:00:00.182Z,17.10
2022-09-30T02:10:00.149Z,15.20
2022-09-30T02:20:00.192Z,16.30
2022-09-30T02:30:01.276Z,16.70
2022-09-30T02:40:00.158Z,13.50
2022-09-30T02:50:00.136Z,17.10
2022-09-30T03:00:03.136Z,16.20
2022-09-30T03:10:00.145Z,16.50
2022-09-30T03:20:00.146Z,16.30
2022-09-30T03:30:00.157Z,19.70
2022-09-30T03:40:01.204Z,15.80
2022-09-30T03:50:01.465Z,14.80
2022-09-30T04:00:00.171Z,15.10
2022-09-30T04:10:00.163Z,16.20
2022-09-30T04:20:00.151Z,16.00
2022-09-30T04:30:00.130Z,15.70
2022-09-30T04:40:00.180Z,19.20
2022-09-30T04:50:00.135Z,15.50
2022-09-30T05:00:00.163Z,16.40
2022-09-30T05:10:00.398Z,16.40
2022-09-30T05:20:00.142Z,13.60
2022-09-30T05:30:01.323Z,14.80
2022-09-30T05:40:01.665Z,15.10
2022-09-30T05:50:00.150Z,22.30
2022-09-30T06:00:00.204Z,20.90
2022-09-30T06:10:00.140Z,18.00
2022-09-30T06:20:00.151Z,19.60
2022-09-30T06:30:00.131Z,24.60
2022-09-30T06:40:00.195Z,21.90
2022-09-30T06:50:01.008Z,23.80
2022-09-30T07:00:00.204Z,18.20
2022-09-30T07:10:00.133Z,24.90
2022-09-30T07:20:00.132Z,23.50
2022-09-30T07:30:22.952Z,23.80
2022-09-30T07:40:00.161Z,21.70
2022-09-30T07:50:00.184Z,21.00
2022-09-30T08:00:08.078Z,20.00
2022-09-30T08:10:00.364Z,23.20
2022-09-30T08:20:00.243Z,26.20
2022-09-30T08:30:03.689Z,21.10
2022-09-30T08:40:00.183Z,26.30
2022-09-30T08:50:00.161Z,26.80
2022-09-30T09:00:02.237Z,22.60
2022-09-30T09:10:00.150Z,22.70
2022-09-30T09:20:00.143Z,16.60
2022-09-30T09:30:00.150Z,17.10
2022-09-30T09:40:03.699Z,18.80
2022-09-30T09:50:00.183Z,16.90
2022-09-30T10:10:01.238Z,17.10
2022-09-30T10:20:00.140Z,22.90
2022-09-30T10:30:00.174Z,19.50
2022-09-30T10:40:00.161Z,32.30
2022-09-30T10:50:00.151Z,150.50
2022-09-30T11:00:00.157Z,226.70
2022-09-30T11:10:00.141Z,575.00
2022-09-30T11:30:00.136Z,725.50
2022-09-30T11:40:00.175Z,745.70
2022-09-30T11:50:00.156Z,747.80
2022-09-30T12:00:00.265Z,736.10
2022-09-30T12:10:00.147Z,745.20
2022-09-30T12:20:01.232Z,738.30
2022-09-30T12:30:00.157Z,684.60
2022-09-30T12:40:00.433Z,492.90
2022-09-30T12:50:00.172Z,433.90
2022-09-30T13:00:00.164Z,451.50
2022-09-30T13:10:00.123Z,347.90
2022-09-30T13:20:00.193Z,182.50
2022-09-30T13:40:00.157Z,131.10
2022-09-30T13:50:00.153Z,164.50
2022-09-30T14:00:00.210Z,150.60
2022-09-30T14:10:06.971Z,145.20
2022-09-30T14:20:00.176Z,165.40
2022-09-30T14:30:00.167Z,121.20
2022-09-30T14:40:00.268Z,163.30
2022-09-30T14:50:01.522Z,199.00
2022-09-30T15:00:00.155Z,143.20
2022-09-30T15:10:00.162Z,126.90
2022-09-30T15:20:00.134Z,104.10
2022-09-30T15:30:00.157Z,156.40
2022-09-30T15:40:00.153Z,187.50
2022-09-30T15:50:00.147Z,183.20
2022-09-30T16:00:01.921Z,175.60
2022-09-30T16:10:00.244Z,133.90
2022-09-30T16:30:00.189Z,100.70
2022-09-30T16:40:00.160Z,104.60
2022-09-30T16:50:00.164Z,67.90
2022-09-30T17:00:00.276Z,74.40
2022-09-30T17:10:00.444Z,67.80
2022-09-30T17:20:00.350Z,50.50
2022-09-30T17:30:00.170Z,32.40
2022-09-30T17:40:01.380Z,27.10
2022-09-30T17:50:00.163Z,35.30
2022-09-30T18:00:00.165Z,34.00
2022-09-30T18:10:00.155Z,32.60
2022-09-30T18:20:00.439Z,43.20
2022-09-30T18:30:00.168Z,36.40
2022-09-30T18:40:00.173Z,40.00
2022-09-30T18:50:00.139Z,33.30
2022-09-30T19:00:00.158Z,39.00
2022-09-30T19:10:00.138Z,47.00
2022-09-30T19:20:00.163Z,45.20
2022-09-30T19:30:00.149Z,40.40
2022-09-30T19:40:06.294Z,32.80
2022-09-30T19:50:00.167Z,36.90
2022-09-30T20:00:04.211Z,48.20
2022-09-30T20:10:00.125Z,50.60
2022-09-30T20:20:00.170Z,41.60
2022-09-30T20:30:00.140Z,53.90
2022-09-30T20:40:00.155Z,32.80
2022-09-30T20:50:00.149Z,38.10
2022-09-30T21:00:00.414Z,51.20
2022-09-30T21:10:00.148Z,47.80
2022-09-30T21:20:00.156Z,31.20
2022-09-30T21:30:00.142Z,43.90
2022-09-30T21:40:00.157Z,37.40
2022-09-30T21:50:00.166Z,36.20
2022-09-30T22:10:00.119Z,34.50
2022-09-30T22:20:00.189Z,35.70
2022-09-30T22:30:00.169Z,31.70
2022-09-30T22:40:01.101Z,27.00
2022-09-30T22:50:00.157Z,34.00
2022-09-30T23:00:00.183Z,33.30
2022-09-30T23:10:00.308Z,38.50
2022-09-30T23:20:00.145Z,59.80
2022-09-30T23:30:00.118Z,34.50
2022-09-30T23:40:00.174Z,53.00
2022-09-30T23:50:00.208Z,21.40
